Time;durP1;ratioP1;P1;durP2;ratioP2;P2;SDS_P1;SDS_P2;PMS_P1;PMS_P2;Temp;Humidity;BMP_temperature;BMP_pressure;BME280_temperature;BME280_humidity;BME280_pressure;Samples;Min_cycle;Max_cycle;Signal;HPM_P1;HPM_P2
2021/01/12 00:02:26;;;;;;;0.50;0.43;;;;;;;2.82;81.83;100273.03;5074251;28;20444;-70
2021/01/12 00:04:53;;;;;;;1.67;1.57;;;;;;;2.82;81.68;100270.38;5074149;28;20543;-69
2021/01/12 00:07:20;;;;;;;3.33;0.87;;;;;;;2.81;81.10;100268.75;5074324;28;20535;-70
2021/01/12 00:09:47;;;;;;;0.50;0.40;;;;;;;2.82;81.91;100267.69;5074385;28;20824;-70
2021/01/12 00:12:13;;;;;;;2.63;1.07;;;;;;;2.84;81.51;100258.38;5074150;28;20473;-70
2021/01/12 00:14:40;;;;;;;1.37;0.77;;;;;;;2.81;81.01;100264.22;5073874;28;20477;-71
2021/01/12 00:17:07;;;;;;;1.80;0.97;;;;;;;2.83;82.07;100242.56;5074130;28;20490;-70
2021/01/12 00:19:35;;;;;;;2.10;1.07;;;;;;;2.83;81.44;100247.91;5073878;28;20897;-70
2021/01/12 00:22:04;;;;;;;0.40;0.30;;;;;;;2.78;81.04;100238.78;5073928;28;20452;-70
2021/01/12 00:24:31;;;;;;;0.50;0.50;;;;;;;2.75;81.24;100239.31;5073478;28;20479;-70
2021/01/12 00:26:58;;;;;;;0.40;0.30;;;;;;;2.76;81.18;100230.22;5073787;28;20868;-69
2021/01/12 00:29:24;;;;;;;0.40;0.20;;;;;;;2.77;82.07;100236.38;5073620;28;20478;-69
2021/01/12 00:31:50;;;;;;;0.40;0.30;;;;;;;2.76;81.25;100229.41;5073725;28;20445;-70
2021/01/12 00:34:16;;;;;;;0.60;0.40;;;;;;;2.80;81.52;100227.03;5073652;28;20496;-70
2021/01/12 00:36:43;;;;;;;0.40;0.30;;;;;;;2.82;81.48;100219.56;5073347;28;20479;-70
2021/01/12 00:39:10;;;;;;;0.50;0.50;;;;;;;2.81;82.07;100215.28;5073621;28;20491;-70
2021/01/12 00:41:36;;;;;;;0.53;0.53;;;;;;;2.82;81.64;100212.34;5073234;28;20477;-70
2021/01/12 00:44:04;;;;;;;0.80;0.70;;;;;;;2.83;81.59;100205.91;5073496;28;20474;-70
2021/01/12 00:46:31;;;;;;;0.83;0.73;;;;;;;2.83;82.33;100210.47;5073572;28;20446;-70
2021/01/12 00:48:57;;;;;;;0.70;0.47;;;;;;;2.84;81.63;100201.41;5073384;28;20519;-70
2021/01/12 00:51:32;;;;;;;1.70;0.40;;;;;;;2.86;81.83;100201.94;5073438;28;20503;-70
2021/01/12 00:53:59;;;;;;;0.40;0.30;;;;;;;2.89;81.81;100199.53;5073079;28;20472;-70
2021/01/12 00:56:25;;;;;;;0.40;0.30;;;;;;;2.88;81.46;100192.59;5073262;28;20448;-70
2021/01/12 00:58:51;;;;;;;0.70;0.70;;;;;;;2.88;82.64;100186.41;5073074;28;20495;-70
2021/01/12 01:01:18;;;;;;;1.07;1.03;;;;;;;2.88;81.83;100175.72;5072986;28;20441;-70
2021/01/12 01:03:44;;;;;;;1.13;0.80;;;;;;;2.86;82.39;100173.31;5072915;28;20500;-70
2021/01/12 01:06:11;;;;;;;0.40;0.30;;;;;;;2.87;81.32;100176.78;5073305;28;20437;-69
2021/01/12 01:08:37;;;;;;;1.33;1.23;;;;;;;2.94;82.74;100180.03;5072742;28;21009;-69
2021/01/12 01:11:04;;;;;;;0.83;0.67;;;;;;;2.88;81.38;100171.19;5073265;28;20441;-70
2021/01/12 01:13:30;;;;;;;0.40;0.30;;;;;;;2.89;81.65;100174.69;5072920;28;20511;-69
2021/01/12 01:15:56;;;;;;;3.93;2.50;;;;;;;2.94;83.24;100169.34;5073153;28;20548;-69
2021/01/12 01:18:23;;;;;;;0.40;0.30;;;;;;;2.93;82.50;100181.91;5072814;28;20452;-69
2021/01/12 01:20:50;;;;;;;0.50;0.30;;;;;;;2.95;82.57;100173.63;5073028;28;20445;-70
2021/01/12 01:23:16;;;;;;;0.43;0.40;;;;;;;2.99;81.92;100166.69;5072968;28;20470;-74
2021/01/12 01:25:42;;;;;;;0.70;0.40;;;;;;;2.98;81.88;100154.38;5072996;28;20821;-70
2021/01/12 01:28:08;;;;;;;0.53;0.53;;;;;;;2.95;82.55;100154.91;5073047;28;20485;-70
2021/01/12 01:30:35;;;;;;;0.40;0.23;;;;;;;3.00;83.51;100149.56;5073004;28;20924;-70
2021/01/12 01:33:01;;;;;;;1.70;1.60;;;;;;;2.99;83.17;100150.63;5072918;28;20471;-69
2021/01/12 01:35:28;;;;;;;0.60;0.60;;;;;;;2.98;83.35;100155.19;5072635;28;20448;-69
2021/01/12 01:37:54;;;;;;;0.40;0.30;;;;;;;2.94;84.51;100137.25;5072640;28;20453;-69
2021/01/12 01:40:21;;;;;;;0.70;0.50;;;;;;;2.87;85.88;100123.28;5072634;28;21016;-69
2021/01/12 01:42:47;;;;;;;0.50;0.50;;;;;;;2.79;87.12;100138.00;5072459;28;20472;-69
2021/01/12 01:45:17;;;;;;;0.93;0.60;;;;;;;2.62;89.36;100132.81;5072882;28;20491;-69
2021/01/12 01:47:44;;;;;;;3.33;1.90;;;;;;;2.51;91.05;100125.78;5072467;28;20442;-69
2021/01/12 01:50:12;;;;;;;0.77;0.67;;;;;;;2.44;92.93;100125.25;5072481;28;20593;-69
2021/01/12 01:52:41;;;;;;;2.97;0.60;;;;;;;2.34;93.43;100122.47;5072817;28;20995;-70
2021/01/12 01:55:08;;;;;;;0.40;0.30;;;;;;;2.26;94.20;100116.56;5073310;28;20448;-70
2021/01/12 01:57:34;;;;;;;0.40;0.23;;;;;;;2.24;95.25;100104.53;5072699;28;20446;-69
2021/01/12 02:00:03;;;;;;;0.60;0.60;;;;;;;2.17;95.87;100109.28;5072778;28;20479;-69
2021/01/12 02:02:29;;;;;;;0.40;0.30;;;;;;;2.08;96.73;100100.97;5072965;28;20437;-69
2021/01/12 02:05:01;;;;;;;0.73;0.73;;;;;;;2.00;98.05;100094.22;5072391;28;20480;-69
2021/01/12 02:07:28;;;;;;;3.03;2.43;;;;;;;1.99;98.37;100094.47;5072594;28;20474;-69
2021/01/12 02:09:58;;;;;;;0.40;0.30;;;;;;;1.93;98.87;100082.94;5072607;28;20545;-69
2021/01/12 02:12:28;;;;;;;1.77;0.53;;;;;;;1.89;99.46;100084.50;5075422;28;20769;-69
2021/01/12 02:14:56;;;;;;;1.13;0.70;;;;;;;1.80;100.00;100079.91;5076383;28;20491;-69
2021/01/12 02:17:26;;;;;;;11.00;0.80;;;;;;;1.75;100.00;100073.47;5076282;28;20817;-69
2021/01/12 02:19:54;;;;;;;0.50;0.30;;;;;;;1.70;100.00;100075.31;5076229;28;20441;-69
2021/01/12 02:22:22;;;;;;;0.93;0.90;;;;;;;1.67;100.00;100071.25;5075845;28;20877;-69
2021/01/12 02:24:51;;;;;;;0.87;0.53;;;;;;;1.64;100.00;100058.44;5076078;28;20469;-69
2021/01/12 02:27:20;;;;;;;0.53;0.50;;;;;;;1.64;100.00;100055.78;5076126;28;20437;-70
2021/01/12 02:29:46;;;;;;;0.70;0.50;;;;;;;1.64;100.00;100050.44;5076059;28;20527;-68
2021/01/12 02:32:14;;;;;;;0.87;0.87;;;;;;;1.61;100.00;100037.59;5076061;28;20437;-69
2021/01/12 02:34:43;;;;;;;0.73;0.50;;;;;;;1.62;100.00;100030.38;5075976;28;20471;-69
2021/01/12 02:37:10;;;;;;;0.40;0.30;;;;;;;1.61;100.00;100034.94;5075944;28;20456;-69
2021/01/12 02:39:36;;;;;;;0.50;0.50;;;;;;;1.60;100.00;100036.00;5075609;28;20960;-69
2021/01/12 02:42:14;;;;;;;0.90;0.70;;;;;;;1.61;100.00;100024.25;5075864;28;20479;-69
2021/01/12 02:44:40;;;;;;;0.40;0.30;;;;;;;1.58;100.00;100014.06;5075769;28;20462;-69
2021/01/12 02:47:06;;;;;;;0.40;0.30;;;;;;;1.59;100.00;100021.00;5075846;28;20816;-69
2021/01/12 02:49:32;;;;;;;0.40;0.30;;;;;;;1.59;100.00;100007.66;5075751;28;20693;-69
2021/01/12 02:51:59;;;;;;;0.40;0.20;;;;;;;1.56;100.00;100002.06;5075661;28;20479;-69
2021/01/12 02:54:26;;;;;;;0.50;0.40;;;;;;;1.58;100.00;100008.72;5075254;28;21091;-69
2021/01/12 02:56:52;;;;;;;0.50;0.43;;;;;;;1.59;100.00;99997.00;5075357;28;20453;-69
2021/01/12 02:59:19;;;;;;;0.40;0.30;;;;;;;1.62;100.00;99969.81;5075576;28;20910;-68
2021/01/12 03:01:45;;;;;;;0.97;0.47;;;;;;;1.60;100.00;99995.97;5075183;28;20537;-69
2021/01/12 03:04:11;;;;;;;0.40;0.40;;;;;;;1.58;100.00;99990.06;5075476;28;20519;-69
2021/01/12 03:06:38;;;;;;;0.60;0.60;;;;;;;1.62;100.00;99972.47;5075358;28;20988;-69
2021/01/12 03:09:04;;;;;;;2.70;0.83;;;;;;;1.65;100.00;99984.50;5075052;28;21028;-70
2021/01/12 03:11:30;;;;;;;0.87;0.50;;;;;;;1.65;100.00;99974.63;5075013;28;20954;-69
2021/01/12 03:13:57;;;;;;;0.77;0.50;;;;;;;1.66;100.00;99954.88;5074896;28;20469;-69
2021/01/12 03:16:24;;;;;;;1.07;0.70;;;;;;;1.66;100.00;99954.09;5074953;28;20953;-69
2021/01/12 03:18:51;;;;;;;0.93;0.60;;;;;;;1.67;100.00;99961.81;5074885;28;20939;-69
2021/01/12 03:21:17;;;;;;;0.40;0.30;;;;;;;1.69;100.00;99951.72;5074789;28;20436;-69
2021/01/12 03:23:44;;;;;;;0.40;0.30;;;;;;;1.72;100.00;99950.38;5074846;28;20462;-69
2021/01/12 03:26:10;;;;;;;0.57;0.40;;;;;;;1.73;100.00;99946.66;5075028;28;20462;-68
2021/01/12 03:28:40;;;;;;;0.50;0.40;;;;;;;1.77;100.00;99931.69;5074457;28;20483;-69
2021/01/12 03:31:07;;;;;;;0.40;0.40;;;;;;;1.77;100.00;99937.88;5073320;28;20456;-69
2021/01/12 03:33:34;;;;;;;0.40;0.30;;;;;;;1.77;100.00;99932.53;5075056;28;20840;-69
2021/01/12 03:36:00;;;;;;;0.50;0.50;;;;;;;1.83;100.00;99929.88;5074838;28;20503;-68
2021/01/12 03:38:26;;;;;;;0.40;0.20;;;;;;;1.84;100.00;99924.28;5074504;28;20926;-68
2021/01/12 03:40:54;;;;;;;0.50;0.50;;;;;;;1.84;100.00;99912.81;5074522;28;20977;-69
2021/01/12 03:43:20;;;;;;;0.43;0.37;;;;;;;1.88;100.00;99928.03;5074342;28;20461;-68
2021/01/12 03:45:46;;;;;;;0.50;0.40;;;;;;;1.90;100.00;99931.25;5074688;28;20461;-68
2021/01/12 03:48:13;;;;;;;0.40;0.27;;;;;;;1.86;100.00;99924.84;5074527;28;20516;-68
2021/01/12 03:50:40;;;;;;;0.40;0.30;;;;;;;1.87;100.00;99913.09;5074597;28;20893;-68
2021/01/12 03:53:06;;;;;;;0.40;0.30;;;;;;;1.85;100.00;99917.06;5074451;28;20467;-68
2021/01/12 03:55:32;;;;;;;0.40;0.30;;;;;;;1.88;100.00;99905.88;5074459;28;20499;-69
2021/01/12 03:57:58;;;;;;;0.40;0.27;;;;;;;1.90;100.00;99901.06;5074443;28;20492;-69
2021/01/12 04:00:25;;;;;;;0.80;0.80;;;;;;;1.88;100.00;99903.22;5074380;28;20477;-68
2021/01/12 04:02:51;;;;;;;0.60;0.50;;;;;;;1.89;100.00;99894.13;5073947;28;20471;-68
2021/01/12 04:05:18;;;;;;;0.40;0.40;;;;;;;1.91;100.00;99887.47;5074267;28;20461;-69
2021/01/12 04:07:45;;;;;;;0.40;0.30;;;;;;;1.90;100.00;99885.03;5073803;28;20945;-68
2021/01/12 04:10:12;;;;;;;0.60;0.60;;;;;;;1.92;100.00;99885.59;5073853;28;20914;-68
2021/01/12 04:12:39;;;;;;;0.40;0.30;;;;;;;1.91;100.00;99878.66;5074025;28;20445;-68
2021/01/12 04:15:07;;;;;;;0.90;0.80;;;;;;;1.91;100.00;99890.16;5100082;22;21107;-78
2021/01/12 04:17:33;;;;;;;3.63;1.10;;;;;;;1.91;100.00;99870.66;5074824;28;20460;-77
2021/01/12 04:19:59;;;;;;;0.77;0.73;;;;;;;1.90;100.00;99866.34;5084345;22;20505;-67
2021/01/12 04:22:26;;;;;;;0.47;0.37;;;;;;;1.90;100.00;99867.16;5077207;28;20995;-67
2021/01/12 04:24:53;;;;;;;0.50;0.40;;;;;;;1.90;100.00;99869.03;5091283;28;20467;-66
2021/01/12 04:27:20;;;;;;;0.97;0.87;;;;;;;1.92;100.00;99866.91;5094351;28;20872;-65
2021/01/12 04:29:46;;;;;;;0.50;0.40;;;;;;;1.87;100.00;99861.56;5094625;28;20483;-66
2021/01/12 04:32:12;;;;;;;0.70;0.70;;;;;;;1.88;100.00;99858.63;5096508;28;20444;-66
2021/01/12 04:34:39;;;;;;;0.40;0.30;;;;;;;1.83;100.00;99853.25;5096293;28;20981;-67
2021/01/12 04:37:05;;;;;;;0.40;0.40;;;;;;;1.83;100.00;99852.47;5096596;28;20444;-65
2021/01/12 04:39:31;;;;;;;0.40;0.30;;;;;;;1.85;100.00;99848.44;5097207;28;20443;-67
2021/01/12 04:41:58;;;;;;;0.50;0.40;;;;;;;1.86;100.00;99839.41;5095903;28;20488;-65
2021/01/12 04:44:24;;;;;;;0.50;0.40;;;;;;;1.87;100.00;99838.31;5094499;28;20468;-67
2021/01/12 04:46:56;;;;;;;0.40;0.30;;;;;;;1.88;100.00;99842.59;5095707;28;20444;-67
2021/01/12 04:49:22;;;;;;;0.40;0.40;;;;;;;1.90;100.00;99829.78;5095406;28;20482;-67
2021/01/12 04:51:49;;;;;;;0.57;0.40;;;;;;;1.96;100.00;99827.94;5096106;28;20443;-66
2021/01/12 04:54:15;;;;;;;11.07;2.77;;;;;;;1.96;100.00;99826.06;5094980;28;20467;-66
2021/01/12 04:56:42;;;;;;;0.40;0.30;;;;;;;1.97;100.00;99817.00;5094730;28;20479;-67
2021/01/12 04:59:10;;;;;;;2.40;2.30;;;;;;;1.96;100.00;99822.59;5094721;28;20445;-66
2021/01/12 05:01:36;;;;;;;0.40;0.30;;;;;;;1.97;100.00;99810.84;5095263;28;20865;-67
2021/01/12 05:04:04;;;;;;;0.40;0.40;;;;;;;2.01;100.00;99809.25;5095704;28;20827;-66
2021/01/12 05:06:30;;;;;;;0.40;0.40;;;;;;;2.03;100.00;99804.44;5095856;28;20433;-67
2021/01/12 05:08:57;;;;;;;0.40;0.30;;;;;;;2.03;100.00;99796.44;5095343;28;20503;-67
2021/01/12 05:11:25;;;;;;;0.40;0.40;;;;;;;1.97;100.00;99797.50;5095766;28;20440;-67
2021/01/12 05:13:55;;;;;;;0.40;0.30;;;;;;;1.98;100.00;99796.44;5095885;28;20542;-67
2021/01/12 05:16:24;;;;;;;0.70;0.70;;;;;;;2.00;100.00;99786.28;5096609;28;20535;-65
2021/01/12 05:18:52;;;;;;;0.40;0.30;;;;;;;1.99;100.00;99788.16;5094726;28;20448;-66
2021/01/12 05:21:19;;;;;;;0.97;0.80;;;;;;;2.03;100.00;99785.75;5094847;28;20448;-67
2021/01/12 05:24:02;;;;;;;0.40;0.30;;;;;;;2.03;100.00;99785.75;5094230;28;20535;-67
2021/01/12 05:26:32;;;;;;;3.03;0.67;;;;;;;2.05;100.00;99772.16;5096122;28;20460;-67
2021/01/12 05:28:59;;;;;;;0.40;0.30;;;;;;;2.09;100.00;99779.38;5095806;28;20478;-65
2021/01/12 05:31:27;;;;;;;0.50;0.40;;;;;;;2.02;100.00;99768.13;5095445;28;20482;-67
2021/01/12 05:33:53;;;;;;;0.40;0.20;;;;;;;2.02;100.00;99766.25;5094732;28;20999;-67
2021/01/12 05:36:20;;;;;;;0.60;0.60;;;;;;;2.05;100.00;99764.94;5096552;28;20443;-66
2021/01/12 05:38:47;;;;;;;2.40;0.63;;;;;;;2.03;100.00;99764.38;5096197;28;20445;-67
2021/01/12 05:41:14;;;;;;;0.60;0.50;;;;;;;2.07;100.00;99759.31;5096183;28;20452;-66
2021/01/12 05:43:44;;;;;;;0.97;0.90;;;;;;;2.08;100.00;99760.91;5094900;28;20857;-67
2021/01/12 05:46:11;;;;;;;0.73;0.60;;;;;;;2.08;100.00;99748.38;5097068;28;20485;-66
2021/01/12 05:48:41;;;;;;;0.70;0.50;;;;;;;2.08;100.00;99753.72;5099796;28;20510;-67
2021/01/12 05:51:09;;;;;;;1.17;1.07;;;;;;;2.05;100.00;99751.59;5099465;28;20483;-65
2021/01/12 05:54:04;;;;;;;0.40;0.30;;;;;;;2.06;100.00;99747.03;5099299;28;20464;-67
2021/01/12 05:56:32;;;;;;;1.23;1.17;;;;;;;2.06;100.00;99749.72;5098593;28;20974;-67
2021/01/12 05:59:00;;;;;;;0.40;0.30;;;;;;;2.03;100.00;99743.81;5098454;28;20448;-66
2021/01/12 06:01:50;;;;;;;0.40;0.30;;;;;;;2.07;100.00;99743.28;5098591;28;20439;-67
2021/01/12 06:04:17;;;;;;;1.03;0.83;;;;;;;2.06;100.00;99736.34;5090438;28;20467;-66
2021/01/12 06:06:45;;;;;;;0.60;0.50;;;;;;;2.02;100.00;99742.22;5097324;28;20449;-66
2021/01/12 06:09:13;;;;;;;1.13;1.03;;;;;;;2.02;100.00;99730.75;5097502;28;20948;-66
2021/01/12 06:11:41;;;;;;;0.40;0.30;;;;;;;2.00;100.00;99730.22;5084067;28;20441;-67
2021/01/12 06:14:09;;;;;;;0.40;0.30;;;;;;;2.01;100.00;99727.28;5089721;28;20490;-67
2021/01/12 06:16:37;;;;;;;2.03;1.20;;;;;;;2.05;100.00;99724.06;5097025;28;20474;-67
2021/01/12 06:19:08;;;;;;;0.40;0.30;;;;;;;2.09;100.00;99719.81;5097345;28;20452;-66
2021/01/12 06:21:43;;;;;;;0.40;0.30;;;;;;;2.09;100.00;99725.94;5097075;28;20812;-67
2021/01/12 06:24:11;;;;;;;0.40;0.20;;;;;;;2.03;100.00;99719.78;5097913;28;20995;-67
2021/01/12 06:26:40;;;;;;;0.40;0.30;;;;;;;2.07;100.00;99730.75;5097926;28;20443;-67
2021/01/12 06:29:07;;;;;;;0.40;0.30;;;;;;;2.08;100.00;99721.69;5098408;28;21081;-67
2021/01/12 06:31:45;;;;;;;0.40;0.30;;;;;;;2.08;100.00;99719.00;5098906;28;20523;-67
2021/01/12 06:34:17;;;;;;;0.93;0.40;;;;;;;2.11;100.00;99726.47;5098843;28;20519;-66
2021/01/12 06:36:51;;;;;;;0.43;0.33;;;;;;;2.13;100.00;99718.22;5098503;28;20503;-67
2021/01/12 06:39:21;;;;;;;0.70;0.47;;;;;;;2.11;100.00;99723.81;5098744;28;20431;-65
2021/01/12 06:41:48;;;;;;;0.47;0.37;;;;;;;2.15;100.00;99718.72;5097003;28;20479;-67
2021/01/12 06:44:21;;;;;;;0.40;0.33;;;;;;;2.20;100.00;99716.84;5096679;28;20876;-66
2021/01/12 06:46:51;;;;;;;1.13;1.13;;;;;;;2.16;100.00;99707.78;5096777;28;20432;-67
2021/01/12 06:49:18;;;;;;;0.93;0.50;;;;;;;2.23;100.00;99716.34;5096277;28;21007;-66
2021/01/12 06:51:54;;;;;;;0.60;0.57;;;;;;;2.27;100.00;99712.06;5096305;28;20454;-67
2021/01/12 06:54:20;;;;;;;0.47;0.33;;;;;;;2.31;100.00;99706.19;5096146;28;20488;-66
2021/01/12 06:56:54;;;;;;;0.40;0.20;;;;;;;2.30;100.00;99707.22;5096364;28;20475;-67
2021/01/12 06:59:20;;;;;;;3.20;1.40;;;;;;;2.32;100.00;99707.78;5100892;28;20425;-63
2021/01/12 07:01:49;;;;;;;0.40;0.30;;;;;;;2.30;100.00;99700.03;5100222;28;20824;-65
2021/01/12 07:04:20;;;;;;;1.17;0.50;;;;;;;2.29;100.00;99693.09;5100458;28;20498;-65
2021/01/12 07:06:50;;;;;;;0.40;0.30;;;;;;;2.38;100.00;99693.34;5097591;28;20928;-66
2021/01/12 07:09:19;;;;;;;0.83;0.50;;;;;;;2.35;100.00;99685.88;5096433;28;20862;-64
2021/01/12 07:11:46;;;;;;;0.53;0.53;;;;;;;2.40;100.00;99689.34;5095252;28;20931;-64
2021/01/12 07:14:12;;;;;;;0.60;0.43;;;;;;;2.40;100.00;99688.53;5095964;28;20456;-63
2021/01/12 07:16:38;;;;;;;0.50;0.40;;;;;;;2.40;100.00;99688.53;5095598;28;20449;-66
2021/01/12 07:19:04;;;;;;;0.40;0.30;;;;;;;2.42;100.00;99683.72;5097148;28;20460;-66
2021/01/12 07:21:31;;;;;;;0.50;0.50;;;;;;;2.42;100.00;99686.41;5095687;28;20471;-66
2021/01/12 07:24:02;;;;;;;0.40;0.30;;;;;;;2.44;100.00;99684.28;5095399;28;21007;-66
2021/01/12 07:26:31;;;;;;;0.40;0.20;;;;;;;2.42;100.00;99673.03;5095415;28;20939;-66
2021/01/12 07:29:05;;;;;;;0.50;0.50;;;;;;;2.44;100.00;99674.38;5096349;28;20491;-68
2021/01/12 07:31:31;;;;;;;0.60;0.60;;;;;;;2.45;100.00;99669.84;5096318;28;20826;-68
2021/01/12 07:33:57;;;;;;;0.40;0.30;;;;;;;2.45;100.00;99675.97;5097116;28;20464;-67
2021/01/12 07:36:24;;;;;;;2.53;0.73;;;;;;;2.42;100.00;99675.69;5095851;28;20447;-67
2021/01/12 07:38:51;;;;;;;0.50;0.30;;;;;;;2.40;100.00;99669.84;5095507;28;20471;-65
2021/01/12 07:41:22;;;;;;;0.60;0.60;;;;;;;2.43;100.00;99680.78;5096265;28;20541;-66
2021/01/12 07:43:48;;;;;;;0.90;0.63;;;;;;;2.45;100.00;99673.28;5095055;28;20496;-65
2021/01/12 07:46:26;;;;;;;0.40;0.27;;;;;;;2.46;100.00;99672.22;5095479;28;20443;-65
2021/01/12 07:48:53;;;;;;;0.40;0.30;;;;;;;2.48;100.00;99674.66;5095073;28;20471;-65
2021/01/12 07:51:27;;;;;;;1.17;1.07;;;;;;;2.49;100.00;99671.69;5095577;28;20920;-64
2021/01/12 07:53:53;;;;;;;1.17;1.07;;;;;;;2.51;100.00;99671.41;5096237;28;20476;-65
2021/01/12 07:56:20;;;;;;;0.40;0.30;;;;;;;2.52;100.00;99665.00;5094900;28;20446;-65
2021/01/12 07:58:47;;;;;;;1.63;0.50;;;;;;;2.48;100.00;99662.06;5095148;28;20441;-66
2021/01/12 08:01:13;;;;;;;2.00;0.43;;;;;;;2.48;100.00;99659.41;5094897;28;20478;-65
2021/01/12 08:03:42;;;;;;;1.07;0.60;;;;;;;2.47;100.00;99667.69;5094960;28;20488;-65
2021/01/12 08:06:09;;;;;;;0.87;0.87;;;;;;;2.51;100.00;99669.53;5094820;28;20470;-65
2021/01/12 08:08:35;;;;;;;1.23;1.23;;;;;;;2.56;100.00;99660.72;5094029;28;20514;-66
2021/01/12 08:11:02;;;;;;;1.70;1.07;;;;;;;2.52;100.00;99660.47;5094690;28;20795;-66
2021/01/12 08:13:30;;;;;;;0.50;0.37;;;;;;;2.53;100.00;99661.28;5094189;28;20537;-66
2021/01/12 08:15:57;;;;;;;0.40;0.33;;;;;;;2.53;100.00;99661.28;5094549;28;20450;-64
2021/01/12 08:18:24;;;;;;;0.40;0.30;;;;;;;2.54;100.00;99657.50;5094144;28;20925;-65
2021/01/12 08:20:55;;;;;;;0.67;0.67;;;;;;;2.56;100.00;99657.25;5094318;28;20445;-64
2021/01/12 08:23:22;;;;;;;0.40;0.30;;;;;;;2.55;100.00;99653.75;5094377;28;20582;-66
2021/01/12 08:25:48;;;;;;;1.17;0.63;;;;;;;2.55;100.00;99643.06;5094076;28;20551;-65
2021/01/12 08:28:15;;;;;;;0.40;0.30;;;;;;;2.52;100.00;99646.28;5093874;28;20439;-64
2021/01/12 08:30:43;;;;;;;0.90;0.40;;;;;;;2.51;100.00;99650.03;5094283;28;20440;-64
2021/01/12 08:33:13;;;;;;;0.50;0.40;;;;;;;2.50;100.00;99651.09;5094218;28;20447;-65
2021/01/12 08:35:42;;;;;;;0.40;0.30;;;;;;;2.49;100.00;99649.50;5094009;28;20536;-65
2021/01/12 08:38:10;;;;;;;0.50;0.40;;;;;;;2.49;100.00;99652.97;5094144;28;20430;-65
2021/01/12 08:40:37;;;;;;;0.40;0.30;;;;;;;2.49;100.00;99646.84;5094058;28;20439;-65
2021/01/12 08:43:13;;;;;;;0.40;0.33;;;;;;;2.50;100.00;99640.41;5093960;28;20511;-64
2021/01/12 08:45:41;;;;;;;0.50;0.40;;;;;;;2.50;100.00;99635.88;5093891;28;20460;-65
2021/01/12 08:48:11;;;;;;;0.40;0.30;;;;;;;2.53;100.00;99645.22;5093600;28;20468;-65
2021/01/12 08:50:38;;;;;;;2.13;0.77;;;;;;;2.55;100.00;99640.41;5093900;28;20457;-65
2021/01/12 08:53:05;;;;;;;0.50;0.50;;;;;;;2.57;100.00;99638.28;5094078;28;20463;-66
2021/01/12 08:55:31;;;;;;;0.83;0.50;;;;;;;2.60;100.00;99634.25;5093924;28;21058;-65
2021/01/12 08:57:59;;;;;;;0.60;0.60;;;;;;;2.60;100.00;99629.69;5094603;28;20474;-64
2021/01/12 09:00:29;;;;;;;0.70;0.63;;;;;;;2.61;100.00;99642.00;5094406;28;20479;-65
2021/01/12 09:02:56;;;;;;;0.40;0.30;;;;;;;2.58;100.00;99637.19;5094032;28;20471;-64
2021/01/12 09:05:24;;;;;;;1.17;0.80;;;;;;;2.56;100.00;99627.84;5094570;28;20832;-65
2021/01/12 09:07:59;;;;;;;1.03;0.50;;;;;;;2.65;100.00;99637.69;5095001;28;20487;-64
2021/01/12 09:10:26;;;;;;;0.83;0.83;;;;;;;2.68;100.00;99625.66;5093220;28;20862;-66
2021/01/12 09:12:54;;;;;;;0.40;0.30;;;;;;;2.72;100.00;99616.81;5092532;28;20452;-64
2021/01/12 09:15:25;;;;;;;0.50;0.37;;;;;;;2.70;100.00;99612.81;5093469;28;20467;-64
2021/01/12 09:18:02;;;;;;;0.40;0.30;;;;;;;2.70;100.00;99613.63;5093831;28;20453;-65
2021/01/12 09:20:29;;;;;;;0.97;0.83;;;;;;;2.73;100.00;99620.31;5093340;28;20448;-66
2021/01/12 09:23:03;;;;;;;0.87;0.80;;;;;;;2.80;100.00;99622.69;5093939;28;20482;-64
2021/01/12 09:25:29;;;;;;;1.90;1.17;;;;;;;2.82;100.00;99620.53;5094050;28;20497;-66
2021/01/12 09:28:12;;;;;;;2.00;0.57;;;;;;;2.81;100.00;99627.75;5093780;28;20562;-65
2021/01/12 09:30:39;;;;;;;0.40;0.30;;;;;;;2.82;100.00;99612.50;5093959;28;20479;-65
2021/01/12 09:33:05;;;;;;;0.40;0.30;;;;;;;2.83;100.00;99616.78;5094108;28;20801;-65
2021/01/12 09:35:33;;;;;;;1.07;0.83;;;;;;;2.83;100.00;99619.47;5094081;28;20463;-65
2021/01/12 09:38:01;;;;;;;0.40;0.30;;;;;;;2.88;100.00;99608.72;5094331;28;20448;-65
2021/01/12 09:40:28;;;;;;;0.40;0.30;;;;;;;2.84;100.00;99608.50;5094336;28;20808;-65
2021/01/12 09:42:54;;;;;;;0.40;0.30;;;;;;;2.86;100.00;99610.91;5093863;28;20476;-65
2021/01/12 09:45:20;;;;;;;0.40;0.30;;;;;;;2.83;100.00;99609.56;5093858;28;20894;-65
2021/01/12 09:47:47;;;;;;;0.40;0.30;;;;;;;2.83;100.00;99606.88;5094018;28;20450;-64
2021/01/12 09:50:13;;;;;;;0.70;0.50;;;;;;;2.85;100.00;99611.97;5094051;28;20527;-64
2021/01/12 09:52:40;;;;;;;0.40;0.30;;;;;;;2.88;100.00;99606.06;5093936;28;20490;-65
2021/01/12 09:55:07;;;;;;;0.40;0.30;;;;;;;2.91;100.00;99609.00;5093549;28;20456;-65
2021/01/12 09:57:36;;;;;;;1.90;1.00;;;;;;;2.90;100.00;99604.72;5093621;28;20873;-65
2021/01/12 10:00:02;;;;;;;0.40;0.20;;;;;;;2.92;100.00;99604.44;5093275;28;20809;-64
2021/01/12 10:02:31;;;;;;;0.93;0.93;;;;;;;2.94;100.00;99608.44;5093604;28;20435;-65
2021/01/12 10:04:58;;;;;;;2.53;0.83;;;;;;;2.92;100.00;99599.09;5092942;28;20468;-64
2021/01/12 10:07:24;;;;;;;1.53;0.83;;;;;;;2.91;100.00;99597.50;5093484;28;20516;-65
2021/01/12 10:09:51;;;;;;;8.03;1.30;;;;;;;2.92;100.00;99597.25;5092856;28;20483;-64
2021/01/12 10:12:17;;;;;;;0.40;0.40;;;;;;;2.90;100.00;99591.34;5093708;28;20500;-65
2021/01/12 10:17:10;;;;;;;0.67;0.40;;;;;;;2.96;100.00;99592.13;5133405;22;20490;-68
2021/01/12 10:19:39;;;;;;;14.73;1.07;;;;;;;2.92;100.00;99593.75;5112819;28;20532;-69
2021/01/12 10:22:05;;;;;;;0.70;0.47;;;;;;;2.95;100.00;99594.00;5113274;28;20454;-70
2021/01/12 10:24:31;;;;;;;0.40;0.40;;;;;;;2.93;100.00;99584.66;5112799;28;20951;-68
2021/01/12 10:26:59;;;;;;;0.40;0.30;;;;;;;2.91;100.00;99595.63;5113028;28;20524;-71
2021/01/12 10:29:26;;;;;;;0.50;0.50;;;;;;;2.96;100.00;99584.09;5112988;28;20485;-68
2021/01/12 10:31:56;;;;;;;0.40;0.30;;;;;;;2.95;100.00;99577.94;5113121;28;20959;-69
2021/01/12 10:34:24;;;;;;;0.77;0.63;;;;;;;2.97;100.00;99565.13;5116463;28;20432;-68
2021/01/12 10:36:51;;;;;;;0.40;0.30;;;;;;;3.02;100.00;99572.31;5116276;28;20504;-68
2021/01/12 10:39:17;;;;;;;0.40;0.30;;;;;;;3.02;100.00;99572.31;5116665;28;20505;-68
2021/01/12 10:41:44;;;;;;;0.50;0.40;;;;;;;3.03;100.00;99571.22;5116563;28;20443;-69
2021/01/12 10:44:11;;;;;;;0.97;0.70;;;;;;;3.02;100.00;99564.28;5116655;28;20467;-69
2021/01/12 10:46:37;;;;;;;0.80;0.60;;;;;;;3.06;100.00;99556.53;5116442;28;20828;-69
2021/01/12 10:49:04;;;;;;;0.73;0.73;;;;;;;3.07;100.00;99552.75;5116045;28;20994;-68
2021/01/12 10:51:30;;;;;;;0.60;0.50;;;;;;;3.10;100.00;99557.53;5116417;28;20474;-69
2021/01/12 10:53:56;;;;;;;0.40;0.20;;;;;;;3.11;100.00;99559.16;5116405;28;20494;-68
2021/01/12 10:56:22;;;;;;;0.40;0.30;;;;;;;3.09;100.00;99554.06;5116268;28;20494;-68
2021/01/12 10:58:49;;;;;;;0.63;0.53;;;;;;;3.10;100.00;99544.97;5115945;28;20855;-68
2021/01/12 11:01:17;;;;;;;0.40;0.30;;;;;;;3.10;100.00;99544.97;5116233;28;20467;-68
2021/01/12 11:03:45;;;;;;;0.40;0.20;;;;;;;3.14;100.00;99543.31;5115807;28;20483;-68
2021/01/12 11:06:11;;;;;;;0.40;0.30;;;;;;;3.15;100.00;99538.81;5116041;28;20467;-68
2021/01/12 11:08:37;;;;;;;0.50;0.40;;;;;;;3.17;100.00;99536.63;5115669;28;20475;-68
2021/01/12 11:11:04;;;;;;;0.40;0.20;;;;;;;3.14;100.00;99537.97;5115758;28;20478;-67
2021/01/12 11:13:30;;;;;;;0.40;0.20;;;;;;;3.19;100.00;99540.66;5115879;28;20439;-69
2021/01/12 11:15:57;;;;;;;0.40;0.30;;;;;;;3.18;100.00;99536.34;5115600;28;20471;-67
2021/01/12 11:18:24;;;;;;;0.83;0.80;;;;;;;3.23;100.00;99532.84;5115903;28;20432;-68
2021/01/12 11:20:52;;;;;;;0.67;0.67;;;;;;;3.27;100.00;99534.69;5115888;28;20435;-68
2021/01/12 11:23:18;;;;;;;0.50;0.40;;;;;;;3.31;100.00;99532.25;5115794;28;20453;-68
2021/01/12 11:25:45;;;;;;;0.40;0.30;;;;;;;3.26;100.00;99527.72;5115448;28;20487;-68
2021/01/12 11:28:12;;;;;;;0.40;0.30;;;;;;;3.26;100.00;99525.06;5115784;28;20443;-68
2021/01/12 11:30:38;;;;;;;0.80;0.80;;;;;;;3.31;100.00;99516.19;5115278;28;20520;-68
2021/01/12 11:33:06;;;;;;;0.47;0.37;;;;;;;3.31;100.00;99512.72;5115623;28;20443;-68
2021/01/12 11:35:34;;;;;;;0.40;0.30;;;;;;;3.32;100.00;99512.47;5115172;28;20882;-68
2021/01/12 11:38:00;;;;;;;0.40;0.30;;;;;;;3.39;100.00;99509.44;5115545;28;20484;-68